EJA765 KSLC-KASE
Flight info
| Callsign | EJA765 |
|---|---|
| Flight time | N/A |
| Altitude | 41000 |
| Route | RUGGD3 EKR DBL |
| Aircraft | CL35/M-SDFGIRW/S |
Departure
| Time | 2026-05-04 17:42 |
|---|---|
| Airport | Salt Lake City International Airport (KSLC) |
Arrival
| Time | N/A |
|---|---|
| Airport | Aspen-Pitkin County Airport (Sardy Field) (KASE) |
| Time | Latitude | Longitude | Altitude | Speed | Heading |
|---|---|---|---|---|---|
| 2026-05-04 17:23 | 40.77609 | -111.95896 | 4225 ft | 0 kts | 359° |
| 2026-05-04 17:38 | 40.77610 | -111.95896 | 4225 ft | 2 kts | 358° |
| 2026-05-04 17:38 | 40.77638 | -111.95994 | 4225 ft | 16 kts | 270° |
| 2026-05-04 17:38 | 40.77670 | -111.96063 | 4225 ft | 13 kts | 355° |
| 2026-05-04 17:38 | 40.77786 | -111.96065 | 4225 ft | 21 kts | 359° |
| 2026-05-04 17:39 | 40.77943 | -111.96003 | 4225 ft | 19 kts | 358° |
| 2026-05-04 17:39 | 40.78121 | -111.96002 | 4226 ft | 32 kts | 1° |
| 2026-05-04 17:39 | 40.78378 | -111.96005 | 4225 ft | 39 kts | 359° |
| 2026-05-04 17:40 | 40.78650 | -111.96003 | 4225 ft | 39 kts | 0° |
| 2026-05-04 17:40 | 40.78925 | -111.96004 | 4225 ft | 40 kts | 0° |
| 2026-05-04 17:40 | 40.79203 | -111.96001 | 4225 ft | 40 kts | 360° |
| 2026-05-04 17:40 | 40.79484 | -111.96003 | 4225 ft | 41 kts | 359° |
| 2026-05-04 17:41 | 40.79762 | -111.96003 | 4225 ft | 32 kts | 1° |
| 2026-05-04 17:41 | 40.79891 | -111.96047 | 4226 ft | 0 kts | 265° |
| 2026-05-04 17:41 | 40.79891 | -111.96053 | 4225 ft | 4 kts | 266° |
| 2026-05-04 17:42 | 40.79874 | -111.96158 | 4227 ft | 18 kts | 234° |
| 2026-05-04 17:42 | 40.79580 | -111.96209 | 4224 ft | 93 kts | 180° |
| 2026-05-04 17:42 | 40.78552 | -111.96205 | 4243 ft | 199 kts | 179° |
| 2026-05-04 17:42 | 40.76837 | -111.96208 | 4874 ft | 277 kts | 180° |
| 2026-05-04 17:43 | 40.74728 | -111.96217 | 6240 ft | 323 kts | 180° |
| 2026-05-04 17:43 | 40.72611 | -111.96207 | 9354 ft | 286 kts | 181° |
| 2026-05-04 17:43 | 40.70670 | -111.96137 | 12332 ft | 286 kts | 179° |
| 2026-05-04 17:43 | 40.68641 | -111.96056 | 14386 ft | 294 kts | 174° |
| 2026-05-04 17:44 | 40.66768 | -111.95124 | 16641 ft | 289 kts | 143° |
| 2026-05-04 17:44 | 40.65578 | -111.93045 | 18761 ft | 288 kts | 111° |
| 2026-05-04 17:44 | 40.65210 | -111.90453 | 20518 ft | 290 kts | 94° |
| 2026-05-04 17:44 | 40.65112 | -111.87779 | 21956 ft | 307 kts | 92° |
| 2026-05-04 17:45 | 40.65186 | -111.84848 | 22916 ft | 335 kts | 80° |
| 2026-05-04 17:45 | 40.65874 | -111.81744 | 23839 ft | 362 kts | 69° |
| 2026-05-04 17:45 | 40.66828 | -111.78607 | 24696 ft | 387 kts | 66° |
| 2026-05-04 17:45 | 40.67908 | -111.75248 | 25235 ft | 408 kts | 66° |
| 2026-05-04 17:46 | 40.69057 | -111.71741 | 25589 ft | 421 kts | 66° |
| 2026-05-04 17:46 | 40.70233 | -111.68178 | 26203 ft | 425 kts | 66° |
| 2026-05-04 17:46 | 40.70614 | -111.66955 | 26412 ft | 428 kts | 69° |